Aviation Digital Data Service (ADDS)

Output produced by METARs form (0154 UTC 25 February 2018)
found at http://aviationweather.gov/adds/metars/
 
METAR text: KGYI 250135Z AUTO 34003KT 10SM CLR 10/06 A2995 RMK AO2 T01040058
Conditions at: KGYI (SHERMAN/DENISON , TX, US) observed 0135 UTC 25 February 2018
Temperature: 10.4°C (51°F)
Dewpoint: 5.8°C (42°F) [RH = 73%]
Pressure (altimeter): 29.95 inches Hg (1014.3 mb)
Winds: from the NNW (340 degrees) at 3 MPH (3 knots; 1.6 m/s)
Visibility: 10 or more miles (16+ km)
Ceiling: at least 12,000 feet AGL
Clouds: sky clear below 12,000 feet AGL
Weather: automated observation with no human augmentation;
there may or may not be significant weather present at this time